createdAt,value
2023-03-05T00:00:07.145Z,55.23
2023-03-05T00:02:39.787Z,55.17
2023-03-05T00:05:06.649Z,55.57
2023-03-05T00:07:33.075Z,55.00
2023-03-05T00:10:00.606Z,54.89
2023-03-05T00:12:27.036Z,54.64
2023-03-05T00:14:53.693Z,54.17
2023-03-05T00:17:20.147Z,54.38
2023-03-05T00:19:46.535Z,54.39
2023-03-05T00:22:12.987Z,54.62
2023-03-05T00:24:39.357Z,54.77
2023-03-05T00:27:05.770Z,55.08
2023-03-05T00:29:32.187Z,55.13
2023-03-05T00:31:58.706Z,55.61
2023-03-05T00:34:25.863Z,56.05
2023-03-05T00:36:52.412Z,55.48
2023-03-05T00:39:19.862Z,55.96
2023-03-05T00:41:46.423Z,56.67
2023-03-05T00:44:13.103Z,56.93
2023-03-05T00:46:40.367Z,57.45
2023-03-05T00:49:07.378Z,57.78
2023-03-05T00:51:33.828Z,57.27
2023-03-05T00:54:01.213Z,56.87
2023-03-05T00:56:27.744Z,57.05
2023-03-05T00:58:54.729Z,56.94
2023-03-05T01:01:21.175Z,56.29
2023-03-05T01:03:47.627Z,56.00
2023-03-05T01:06:15.074Z,55.89
2023-03-05T01:08:41.627Z,55.31
2023-03-05T01:11:08.335Z,56.10
2023-03-05T01:13:35.029Z,55.44
2023-03-05T01:16:01.502Z,54.85
2023-03-05T01:18:27.971Z,54.60
2023-03-05T01:20:54.797Z,54.44
2023-03-05T01:23:21.215Z,54.51
2023-03-05T01:25:53.049Z,54.54
2023-03-05T01:28:19.437Z,54.63
2023-03-05T01:30:45.911Z,54.64
2023-03-05T01:33:12.319Z,54.92
2023-03-05T01:35:38.846Z,54.46
2023-03-05T01:38:05.218Z,55.06
2023-03-05T01:40:31.806Z,55.12
2023-03-05T01:43:06.920Z,54.94
2023-03-05T01:45:33.448Z,54.87
2023-03-05T01:47:59.900Z,54.73
2023-03-05T01:50:26.426Z,54.56
2023-03-05T01:52:54.452Z,55.45
2023-03-05T01:55:21.605Z,54.98
2023-03-05T01:57:48.926Z,54.77
2023-03-05T02:00:38.634Z,54.98
2023-03-05T02:03:06.144Z,54.71
2023-03-05T02:05:33.561Z,54.69
2023-03-05T02:08:01.104Z,55.35
2023-03-05T02:10:28.901Z,54.80
2023-03-05T02:12:56.521Z,54.42
2023-03-05T02:15:23.048Z,54.32
2023-03-05T02:17:49.510Z,54.54
2023-03-05T02:20:19.810Z,54.46
2023-03-05T02:22:46.336Z,54.97
2023-03-05T02:25:20.112Z,54.68
2023-03-05T02:27:49.674Z,54.63
2023-03-05T02:30:16.292Z,54.78
2023-03-05T02:32:42.773Z,55.09
2023-03-05T02:35:09.632Z,54.61
2023-03-05T02:37:36.070Z,54.48
2023-03-05T02:40:02.776Z,54.51
2023-03-05T02:42:30.902Z,54.81
2023-03-05T02:44:57.348Z,55.00
2023-03-05T02:47:23.771Z,55.26
2023-03-05T02:49:50.490Z,54.83
2023-03-05T02:52:17.966Z,55.22
2023-03-05T02:54:44.567Z,55.14
2023-03-05T02:57:10.985Z,55.84
2023-03-05T02:59:37.464Z,55.14
2023-03-05T03:02:03.890Z,55.21
2023-03-05T03:04:30.257Z,55.59
2023-03-05T03:06:56.625Z,55.03
2023-03-05T03:09:23.051Z,55.42
2023-03-05T03:11:49.474Z,56.37
2023-03-05T03:14:15.890Z,56.52
2023-03-05T03:16:42.421Z,55.55
2023-03-05T03:19:08.882Z,55.96
2023-03-05T03:21:35.299Z,55.76
2023-03-05T03:24:01.762Z,55.32
2023-03-05T03:26:28.855Z,55.44
2023-03-05T03:28:55.266Z,55.61
2023-03-05T03:31:21.903Z,56.83
2023-03-05T03:33:48.396Z,56.50
2023-03-05T03:36:14.842Z,56.62
2023-03-05T03:38:41.279Z,56.18
2023-03-05T03:41:10.372Z,56.36
2023-03-05T03:43:36.779Z,56.17
2023-03-05T03:46:07.471Z,56.85
2023-03-05T03:48:34.013Z,56.72
2023-03-05T03:51:00.763Z,56.26
2023-03-05T03:53:27.187Z,56.11
2023-03-05T03:55:57.482Z,56.82
2023-03-05T03:58:24.146Z,56.78
2023-03-05T04:00:50.535Z,57.14
2023-03-05T04:03:17.478Z,57.36
2023-03-05T04:05:43.856Z,58.02
2023-03-05T04:08:12.133Z,58.11
2023-03-05T04:10:39.736Z,58.57
2023-03-05T04:13:06.421Z,57.65
2023-03-05T04:15:34.082Z,57.45
2023-03-05T04:18:00.563Z,57.16
2023-03-05T04:20:27.063Z,58.40
2023-03-05T04:22:53.474Z,58.54
2023-03-05T04:25:19.870Z,58.76
2023-03-05T04:27:50.522Z,58.60
2023-03-05T04:30:17.134Z,58.63
2023-03-05T04:32:43.617Z,57.98
2023-03-05T04:35:10.166Z,57.97
2023-03-05T04:37:36.887Z,59.26
2023-03-05T04:40:04.024Z,59.45
2023-03-05T04:42:30.410Z,60.07
2023-03-05T04:44:56.790Z,58.57
2023-03-05T04:47:23.169Z,58.27
2023-03-05T04:49:49.572Z,58.84
2023-03-05T04:52:16.009Z,59.07
2023-03-05T04:54:42.377Z,58.67
2023-03-05T04:57:08.899Z,59.31
2023-03-05T04:59:35.290Z,58.10
2023-03-05T05:02:01.763Z,58.63
2023-03-05T05:04:28.323Z,58.77
2023-03-05T05:06:55.994Z,58.57
2023-03-05T05:09:22.712Z,58.77
2023-03-05T05:11:49.095Z,60.91
2023-03-05T05:14:15.510Z,61.46
2023-03-05T05:16:42.463Z,60.70
2023-03-05T05:19:09.003Z,61.39
2023-03-05T05:21:35.437Z,62.04
2023-03-05T05:24:01.830Z,62.91
2023-03-05T05:26:28.304Z,62.48
2023-03-05T05:28:54.699Z,60.71
2023-03-05T05:31:21.141Z,61.28
2023-03-05T05:33:49.763Z,61.28
2023-03-05T05:36:16.690Z,61.70
2023-03-05T05:38:43.116Z,62.50
2023-03-05T05:41:10.964Z,62.08
2023-03-05T05:43:37.632Z,61.02
2023-03-05T05:46:05.850Z,61.26
2023-03-05T05:48:32.947Z,60.09
2023-03-05T05:50:59.327Z,60.28
2023-03-05T05:53:25.751Z,60.92
2023-03-05T05:55:52.520Z,61.88
2023-03-05T05:58:18.942Z,60.84
2023-03-05T06:00:45.318Z,60.51
2023-03-05T06:03:11.789Z,60.49
2023-03-05T06:05:38.307Z,59.90
2023-03-05T06:08:04.803Z,59.87
2023-03-05T06:10:31.185Z,59.59
2023-03-05T06:12:57.645Z,59.19
2023-03-05T06:15:24.026Z,59.66
2023-03-05T06:17:50.477Z,59.89
2023-03-05T06:20:16.892Z,60.33
2023-03-05T06:22:43.391Z,59.07
2023-03-05T06:25:10.073Z,58.42
2023-03-05T06:27:36.566Z,60.01
2023-03-05T06:30:03.472Z,59.81
2023-03-05T06:32:29.935Z,60.30
2023-03-05T06:34:56.424Z,59.51
2023-03-05T06:37:22.898Z,60.07
2023-03-05T06:39:49.274Z,59.42
2023-03-05T06:42:17.924Z,58.82
2023-03-05T06:44:45.919Z,58.40
2023-03-05T06:47:14.620Z,59.06
2023-03-05T06:49:41.189Z,58.25
2023-03-05T06:52:10.102Z,58.74
2023-03-05T06:54:36.520Z,59.61
2023-03-05T06:57:02.920Z,59.10
2023-03-05T06:59:29.361Z,57.89
2023-03-05T07:01:55.776Z,58.83
2023-03-05T07:04:24.412Z,58.02
2023-03-05T07:06:50.974Z,58.96
2023-03-05T07:09:17.550Z,57.83
2023-03-05T07:11:44.043Z,58.34
2023-03-05T07:14:10.502Z,57.66
2023-03-05T07:16:36.894Z,59.08
2023-03-05T07:19:04.593Z,59.47
2023-03-05T07:21:31.749Z,58.25
2023-03-05T07:23:59.033Z,58.47
2023-03-05T07:26:25.617Z,57.71
2023-03-05T07:28:52.095Z,58.49
2023-03-05T07:31:19.573Z,57.51
2023-03-05T07:33:46.580Z,58.60
2023-03-05T07:36:13.164Z,58.51
2023-03-05T07:38:39.602Z,57.05
2023-03-05T07:41:07.080Z,58.29
2023-03-05T07:43:33.530Z,58.48
2023-03-05T07:45:59.964Z,58.67
2023-03-05T07:48:26.601Z,58.44
2023-03-05T07:51:00.121Z,58.18
2023-03-05T07:53:26.518Z,58.34
2023-03-05T07:55:52.946Z,59.11
2023-03-05T07:58:19.387Z,57.64
2023-03-05T08:00:45.774Z,56.61
2023-03-05T08:03:12.171Z,56.58
2023-03-05T08:05:39.685Z,56.65
2023-03-05T08:08:06.654Z,57.33
2023-03-05T08:10:33.414Z,58.65
2023-03-05T08:12:59.808Z,58.62
2023-03-05T08:15:26.176Z,59.02
2023-03-05T08:17:52.561Z,59.91
2023-03-05T08:20:19.208Z,58.46
2023-03-05T08:22:45.872Z,58.83
2023-03-05T08:25:12.268Z,58.22
2023-03-05T08:27:42.558Z,59.69
2023-03-05T08:30:09.238Z,58.10
2023-03-05T08:32:35.674Z,57.39
2023-03-05T08:35:04.577Z,58.05
2023-03-05T08:37:31.284Z,57.76
2023-03-05T08:39:57.705Z,57.48
2023-03-05T08:42:24.701Z,57.48
2023-03-05T08:44:51.123Z,56.78
2023-03-05T08:47:18.643Z,58.41
2023-03-05T08:49:45.116Z,58.73
2023-03-05T08:52:11.493Z,57.21
2023-03-05T08:54:37.891Z,57.87
2023-03-05T08:57:04.396Z,58.19
2023-03-05T08:59:30.847Z,59.14
2023-03-05T09:02:00.816Z,57.57
2023-03-05T09:04:27.282Z,57.88
2023-03-05T09:06:53.697Z,57.45
2023-03-05T09:09:23.192Z,56.15
2023-03-05T09:11:51.066Z,56.20
2023-03-05T09:14:17.602Z,56.33
2023-03-05T09:16:44.039Z,56.13
2023-03-05T09:19:12.656Z,55.90
2023-03-05T09:21:39.171Z,55.11
2023-03-05T09:24:05.762Z,55.91
2023-03-05T09:26:32.164Z,54.98
2023-03-05T09:28:58.580Z,56.16
2023-03-05T09:31:25.110Z,56.45
2023-03-05T09:33:51.572Z,54.61
2023-03-05T09:36:19.640Z,55.38
2023-03-05T09:38:46.023Z,55.35
2023-03-05T09:41:15.611Z,54.46
2023-03-05T09:43:51.315Z,54.82
2023-03-05T09:46:23.142Z,55.11
2023-03-05T09:48:50.609Z,54.02
2023-03-05T09:51:20.514Z,56.61
2023-03-05T09:53:48.511Z,55.82
2023-03-05T09:56:26.001Z,54.20
2023-03-05T09:58:55.170Z,53.27
2023-03-05T10:01:29.221Z,52.41
2023-03-05T10:03:57.446Z,52.74
2023-03-05T10:06:25.263Z,52.35
2023-03-05T10:08:54.779Z,52.95
2023-03-05T10:11:25.143Z,54.41
2023-03-05T10:13:52.193Z,54.61
2023-03-05T10:16:27.548Z,52.81
2023-03-05T10:19:02.983Z,54.88
2023-03-05T10:21:48.170Z,54.87
2023-03-05T10:24:41.025Z,54.16
2023-03-05T10:27:21.420Z,55.55
2023-03-05T10:29:53.643Z,56.58
2023-03-05T10:32:23.810Z,55.90
2023-03-05T10:35:05.570Z,54.25
2023-03-05T10:37:34.749Z,55.26
2023-03-05T10:40:16.403Z,55.16
2023-03-05T10:42:43.013Z,55.06
2023-03-05T10:45:14.108Z,55.45
2023-03-05T10:47:57.566Z,55.48
2023-03-05T10:50:25.367Z,55.00
2023-03-05T10:53:11.038Z,54.61
2023-03-05T10:55:37.435Z,55.15
2023-03-05T10:58:10.079Z,53.76
2023-03-05T11:00:36.437Z,55.40
2023-03-05T11:03:04.097Z,54.28
2023-03-05T11:05:50.769Z,56.44
2023-03-05T11:08:23.171Z,56.89
2023-03-05T11:11:04.053Z,56.14
2023-03-05T11:13:30.657Z,56.04
2023-03-05T11:16:04.975Z,54.96
2023-03-05T11:18:34.580Z,54.33
2023-03-05T11:21:08.344Z,55.67
2023-03-05T11:23:34.739Z,56.22
2023-03-05T11:26:13.192Z,54.26
2023-03-05T11:28:55.987Z,54.52
2023-03-05T11:31:24.306Z,53.93
2023-03-05T11:33:54.473Z,52.25
2023-03-05T11:36:23.785Z,53.77
2023-03-05T11:38:52.170Z,53.49
2023-03-05T11:41:26.689Z,52.31
2023-03-05T11:43:53.407Z,54.35
2023-03-05T11:46:20.355Z,53.13
2023-03-05T11:48:46.863Z,55.55
2023-03-05T11:51:36.484Z,54.74
2023-03-05T11:54:06.252Z,55.47
2023-03-05T11:56:39.311Z,54.72
2023-03-05T11:59:19.409Z,52.08
2023-03-05T12:01:52.833Z,52.40
2023-03-05T12:04:19.695Z,52.82
2023-03-05T12:06:50.398Z,53.02
2023-03-05T12:09:35.279Z,52.89
2023-03-05T12:12:04.775Z,52.28
2023-03-05T12:14:33.255Z,52.99
2023-03-05T12:17:06.027Z,51.55
2023-03-05T12:19:47.577Z,52.39
2023-03-05T12:22:15.717Z,52.29
2023-03-05T12:24:42.088Z,53.49
2023-03-05T12:27:10.039Z,53.78
2023-03-05T12:29:43.971Z,52.10
2023-03-05T12:32:25.808Z,52.24
2023-03-05T12:34:58.282Z,51.62
2023-03-05T12:37:24.676Z,54.21
2023-03-05T12:39:57.803Z,53.79
2023-03-05T12:42:30.313Z,53.46
2023-03-05T12:45:22.572Z,52.61
2023-03-05T12:47:54.909Z,51.93
2023-03-05T12:50:27.601Z,51.48
2023-03-05T12:52:54.608Z,53.69
2023-03-05T12:55:23.783Z,54.46
2023-03-05T12:57:57.473Z,54.75
2023-03-05T13:00:28.028Z,52.85
2023-03-05T13:02:57.937Z,53.37
2023-03-05T13:05:29.824Z,53.84
2023-03-05T13:08:16.207Z,52.01
2023-03-05T13:10:42.781Z,53.10
2023-03-05T13:13:12.876Z,53.42
2023-03-05T13:15:39.260Z,54.17
2023-03-05T13:18:08.459Z,52.79
2023-03-05T13:20:38.994Z,52.38
2023-03-05T13:23:11.576Z,51.74
2023-03-05T13:25:37.984Z,51.58
2023-03-05T13:28:05.005Z,51.63
2023-03-05T13:30:33.606Z,51.66
2023-03-05T13:33:04.762Z,53.02
2023-03-05T13:35:31.882Z,52.03
2023-03-05T13:37:58.267Z,51.93
2023-03-05T13:40:24.641Z,52.37
2023-03-05T13:42:51.408Z,52.93
2023-03-05T13:45:30.908Z,51.52
2023-03-05T13:47:58.377Z,51.08
2023-03-05T13:50:26.808Z,51.38
2023-03-05T13:52:53.554Z,50.40
2023-03-05T13:55:20.070Z,51.71
2023-03-05T13:57:49.833Z,51.60
2023-03-05T14:00:31.639Z,51.53
2023-03-05T14:03:00.523Z,51.12
2023-03-05T14:05:27.777Z,51.74
2023-03-05T14:07:55.547Z,52.24
2023-03-05T14:10:25.000Z,52.84
2023-03-05T14:12:51.494Z,52.49
2023-03-05T14:15:25.137Z,52.30
2023-03-05T14:17:51.824Z,52.69
2023-03-05T14:20:23.097Z,51.68
2023-03-05T14:22:50.711Z,52.15
2023-03-05T14:25:36.347Z,51.63
2023-03-05T14:28:03.855Z,53.17
2023-03-05T14:30:30.932Z,52.09
2023-03-05T14:32:57.354Z,52.69
2023-03-05T14:35:26.494Z,52.40
2023-03-05T14:37:53.456Z,53.81
2023-03-05T14:40:21.299Z,53.02
2023-03-05T14:42:55.917Z,53.95
2023-03-05T14:45:23.885Z,53.46
2023-03-05T14:47:50.762Z,53.68
2023-03-05T14:50:18.882Z,56.00
2023-03-05T14:52:45.747Z,54.51
2023-03-05T14:55:19.690Z,53.23
2023-03-05T14:57:46.050Z,53.48
2023-03-05T15:00:16.774Z,52.46
2023-03-05T15:02:43.300Z,52.06
2023-03-05T15:05:09.770Z,52.38
2023-03-05T15:07:36.354Z,53.44
2023-03-05T15:10:03.847Z,53.35
2023-03-05T15:12:30.256Z,53.92
2023-03-05T15:14:56.822Z,54.85
2023-03-05T15:17:24.608Z,54.91
2023-03-05T15:19:51.041Z,54.58
2023-03-05T15:22:17.607Z,56.19
2023-03-05T15:24:44.342Z,54.40
2023-03-05T15:27:10.865Z,54.14
2023-03-05T15:29:37.296Z,55.01
2023-03-05T15:32:04.911Z,55.69
2023-03-05T15:34:31.468Z,54.50
2023-03-05T15:36:58.992Z,53.47
2023-03-05T15:39:25.471Z,55.94
2023-03-05T15:41:52.240Z,54.54
2023-03-05T15:44:18.967Z,54.95
2023-03-05T15:46:45.402Z,56.12
2023-03-05T15:49:11.853Z,55.30
2023-03-05T15:51:38.340Z,56.65
2023-03-05T15:54:04.843Z,56.78
2023-03-05T15:56:31.828Z,55.86
2023-03-05T15:58:58.237Z,55.21
2023-03-05T16:01:24.929Z,55.54
2023-03-05T16:03:51.420Z,55.35
2023-03-05T16:06:22.330Z,54.87
2023-03-05T16:08:49.644Z,53.72
2023-03-05T16:11:16.239Z,55.96
2023-03-05T16:13:43.042Z,55.62
2023-03-05T16:16:09.549Z,54.79
2023-03-05T16:18:37.486Z,56.23
2023-03-05T16:21:03.915Z,55.00
2023-03-05T16:23:30.614Z,54.68
2023-03-05T16:25:58.682Z,55.26
2023-03-05T16:28:25.989Z,56.41
2023-03-05T16:30:56.016Z,56.14
2023-03-05T16:33:22.618Z,55.55
2023-03-05T16:35:49.167Z,55.53
2023-03-05T16:38:15.817Z,56.86
2023-03-05T16:41:06.939Z,55.81
2023-03-05T16:43:28.633Z,56.00
2023-03-05T16:45:55.051Z,55.99
2023-03-05T16:48:21.568Z,55.59
2023-03-05T16:50:48.076Z,55.81
2023-03-05T16:53:14.513Z,55.74
2023-03-05T16:55:40.946Z,56.75
2023-03-05T16:58:07.347Z,55.68
2023-03-05T17:00:33.790Z,55.90
2023-03-05T17:03:00.200Z,57.54
2023-03-05T17:05:28.147Z,56.91
2023-03-05T17:07:55.660Z,55.98
2023-03-05T17:10:22.243Z,55.16
2023-03-05T17:12:49.336Z,56.25
2023-03-05T17:15:15.849Z,56.50
2023-03-05T17:17:42.276Z,56.13
2023-03-05T17:20:09.122Z,56.14
2023-03-05T17:22:35.632Z,55.97
2023-03-05T17:25:02.025Z,56.74
2023-03-05T17:27:29.463Z,56.11
2023-03-05T17:29:55.894Z,55.50
2023-03-05T17:32:22.519Z,56.62
2023-03-05T17:34:52.434Z,56.15
2023-03-05T17:37:19.132Z,55.48
2023-03-05T17:39:45.508Z,55.86
2023-03-05T17:42:11.980Z,56.87
2023-03-05T17:44:38.409Z,56.55
2023-03-05T17:47:04.938Z,57.70
2023-03-05T17:49:31.307Z,56.03
2023-03-05T17:51:57.786Z,55.67
2023-03-05T17:54:24.156Z,54.93
2023-03-05T17:56:54.090Z,55.21
2023-03-05T17:59:20.502Z,57.18
2023-03-05T18:01:47.006Z,55.90
2023-03-05T18:04:15.170Z,56.90
2023-03-05T18:06:41.629Z,55.75
2023-03-05T18:09:08.404Z,55.92
2023-03-05T18:11:34.876Z,55.66
2023-03-05T18:14:01.426Z,55.35
2023-03-05T18:16:27.912Z,54.18
2023-03-05T18:18:54.442Z,54.75
2023-03-05T18:21:22.150Z,55.09
2023-03-05T18:23:48.838Z,55.24
2023-03-05T18:26:15.279Z,55.51
2023-03-05T18:28:41.740Z,54.20
2023-03-05T18:31:08.234Z,55.17
2023-03-05T18:33:34.697Z,53.79
2023-03-05T18:36:01.731Z,53.73
2023-03-05T18:38:28.984Z,53.24
2023-03-05T18:40:56.466Z,53.13
2023-03-05T18:43:23.611Z,53.51
2023-03-05T18:45:50.709Z,53.29
2023-03-05T18:48:17.485Z,53.03
2023-03-05T18:50:43.932Z,53.29
2023-03-05T18:53:12.182Z,53.76
2023-03-05T18:55:38.832Z,53.57
2023-03-05T18:58:05.279Z,54.80
2023-03-05T19:00:32.008Z,55.55
2023-03-05T19:02:58.515Z,55.51
2023-03-05T19:05:28.075Z,54.53
2023-03-05T19:07:54.706Z,53.33
2023-03-05T19:10:22.570Z,54.51
2023-03-05T19:12:55.387Z,54.28
2023-03-05T19:15:21.941Z,54.51
2023-03-05T19:17:49.549Z,54.17
2023-03-05T19:20:16.478Z,55.15
2023-03-05T19:22:42.920Z,55.91
2023-03-05T19:25:09.793Z,54.83
2023-03-05T19:27:36.567Z,54.50
2023-03-05T19:30:03.627Z,54.66
2023-03-05T19:32:30.402Z,54.00
2023-03-05T19:34:57.203Z,54.88
2023-03-05T19:37:24.008Z,55.71
2023-03-05T19:39:50.414Z,56.23
2023-03-05T19:42:16.836Z,56.76
2023-03-05T19:44:43.233Z,55.93
2023-03-05T19:47:09.663Z,55.30
2023-03-05T19:49:36.177Z,56.32
2023-03-05T19:52:04.135Z,55.87
2023-03-05T19:54:30.727Z,55.15
2023-03-05T19:56:58.869Z,55.61
2023-03-05T19:59:25.527Z,57.28
2023-03-05T20:01:52.024Z,56.33
2023-03-05T20:04:20.072Z,56.02
2023-03-05T20:06:47.137Z,56.55
2023-03-05T20:09:14.127Z,56.76
2023-03-05T20:11:40.757Z,58.24
2023-03-05T20:14:07.927Z,57.36
2023-03-05T20:16:37.976Z,57.43
2023-03-05T20:19:05.519Z,57.60
2023-03-05T20:21:33.404Z,58.86
2023-03-05T20:24:01.730Z,59.04
2023-03-05T20:26:28.202Z,58.82
2023-03-05T20:28:55.435Z,58.66
2023-03-05T20:31:23.262Z,58.71
2023-03-05T20:33:49.707Z,58.39
2023-03-05T20:36:16.171Z,59.19
2023-03-05T20:38:42.576Z,58.45
2023-03-05T20:41:10.748Z,57.19
2023-03-05T20:43:38.320Z,57.63
2023-03-05T20:46:04.918Z,57.78
2023-03-05T20:48:32.489Z,57.65
2023-03-05T20:51:01.547Z,56.78
2023-03-05T20:53:27.935Z,56.70
2023-03-05T20:55:54.407Z,56.31
2023-03-05T20:58:20.797Z,55.72
2023-03-05T21:00:47.326Z,55.75
2023-03-05T21:03:13.734Z,55.49
2023-03-05T21:05:40.178Z,55.21
2023-03-05T21:08:06.634Z,55.14
2023-03-05T21:10:33.021Z,54.69
2023-03-05T21:13:00.896Z,54.63
2023-03-05T21:15:28.055Z,54.69
2023-03-05T21:17:54.669Z,54.54
2023-03-05T21:20:27.496Z,55.07
2023-03-05T21:22:54.417Z,55.19
2023-03-05T21:25:21.957Z,55.14
2023-03-05T21:27:48.589Z,54.80
2023-03-05T21:30:15.418Z,54.93
2023-03-05T21:32:41.929Z,55.37
2023-03-05T21:35:08.394Z,55.10
2023-03-05T21:37:42.181Z,55.91
2023-03-05T21:40:12.580Z,55.27
2023-03-05T21:42:39.056Z,55.32
2023-03-05T21:45:06.030Z,54.88
2023-03-05T21:47:32.492Z,55.31
2023-03-05T21:49:58.958Z,54.86
2023-03-05T21:52:25.363Z,54.59
2023-03-05T21:54:54.784Z,55.49
2023-03-05T21:57:21.233Z,55.17
2023-03-05T21:59:47.617Z,54.98
2023-03-05T22:02:15.178Z,56.05
2023-03-05T22:04:41.883Z,55.59
2023-03-05T22:07:08.286Z,55.85
2023-03-05T22:09:34.742Z,55.43
2023-03-05T22:12:01.988Z,56.02
2023-03-05T22:14:28.446Z,55.76
2023-03-05T22:16:57.168Z,55.24
2023-03-05T22:19:23.593Z,54.97
2023-03-05T22:21:50.030Z,55.38
2023-03-05T22:24:16.408Z,55.37
2023-03-05T22:26:42.807Z,55.31
2023-03-05T22:29:11.563Z,55.25
2023-03-05T22:31:37.964Z,54.66
2023-03-05T22:34:04.322Z,54.80
2023-03-05T22:36:30.677Z,54.91
2023-03-05T22:38:57.068Z,54.68
2023-03-05T22:41:23.486Z,55.21
2023-03-05T22:43:49.996Z,54.92
2023-03-05T22:46:18.014Z,55.02
2023-03-05T22:48:44.829Z,54.14
2023-03-05T22:51:11.404Z,54.16
2023-03-05T22:53:38.332Z,54.10
2023-03-05T22:56:05.594Z,53.83
2023-03-05T22:58:31.996Z,53.99
2023-03-05T23:00:58.366Z,54.79
2023-03-05T23:03:24.832Z,54.13
2023-03-05T23:05:51.278Z,53.83
2023-03-05T23:08:17.737Z,54.00
2023-03-05T23:10:44.179Z,54.13
2023-03-05T23:13:10.649Z,53.76
2023-03-05T23:15:37.492Z,54.69
2023-03-05T23:18:04.409Z,54.32
2023-03-05T23:20:32.146Z,54.50
2023-03-05T23:22:58.790Z,54.61
2023-03-05T23:25:26.665Z,54.27
2023-03-05T23:27:53.083Z,54.84
2023-03-05T23:30:19.932Z,55.26
2023-03-05T23:32:48.018Z,54.78
2023-03-05T23:35:15.127Z,54.48
2023-03-05T23:37:41.731Z,54.93
2023-03-05T23:40:11.724Z,54.94
2023-03-05T23:42:38.491Z,54.92
2023-03-05T23:45:06.378Z,55.60
2023-03-05T23:47:36.150Z,55.06
2023-03-05T23:50:06.043Z,55.39
2023-03-05T23:52:32.584Z,55.31
2023-03-05T23:54:59.042Z,55.16
2023-03-05T23:57:25.474Z,55.24
2023-03-05T23:59:51.850Z,55.18
